sensor_id;sensor_type;location;lat;lon;timestamp;pressure;altitude;pressure_sealevel;temperature;humidity
63500;BME280;49654;51.142;14.924;2023-04-03T00:02:02;100199.19;;;2.03;66.17
63500;BME280;49654;51.142;14.924;2023-04-03T00:04:30;100207.88;;;2.00;65.70
63500;BME280;49654;51.142;14.924;2023-04-03T00:06:57;100206.47;;;1.82;65.46
63500;BME280;49654;51.142;14.924;2023-04-03T00:09:24;100132.78;;;1.44;66.88
63500;BME280;49654;51.142;14.924;2023-04-03T00:11:50;100209.00;;;1.96;66.68
63500;BME280;49654;51.142;14.924;2023-04-03T00:14:18;100215.28;;;2.05;66.86
63500;BME280;49654;51.142;14.924;2023-04-03T00:16:44;100212.66;;;2.06;66.60
63500;BME280;49654;51.142;14.924;2023-04-03T00:19:11;100209.44;;;2.03;66.54
63500;BME280;49654;51.142;14.924;2023-04-03T00:21:40;100213.19;;;1.97;65.80
63500;BME280;49654;51.142;14.924;2023-04-03T00:24:07;100218.13;;;2.00;64.89
63500;BME280;49654;51.142;14.924;2023-04-03T00:26:33;100221.50;;;2.15;64.67
63500;BME280;49654;51.142;14.924;2023-04-03T00:29:00;100226.25;;;2.21;65.08
63500;BME280;49654;51.142;14.924;2023-04-03T00:31:27;100203.41;;;2.04;64.55
63500;BME280;49654;51.142;14.924;2023-04-03T00:33:55;100223.84;;;2.32;64.94
63500;BME280;49654;51.142;14.924;2023-04-03T00:36:22;100216.78;;;2.36;65.82
63500;BME280;49654;51.142;14.924;2023-04-03T00:38:50;100194.31;;;2.12;64.86
63500;BME280;49654;51.142;14.924;2023-04-03T00:41:17;100228.88;;;2.34;64.21
63500;BME280;49654;51.142;14.924;2023-04-03T00:43:44;100216.22;;;2.31;64.29
63500;BME280;49654;51.142;14.924;2023-04-03T00:46:11;100221.56;;;2.28;64.63
63500;BME280;49654;51.142;14.924;2023-04-03T00:48:40;100219.22;;;2.10;63.67
63500;BME280;49654;51.142;14.924;2023-04-03T00:51:11;100207.34;;;1.95;62.43
63500;BME280;49654;51.142;14.924;2023-04-03T00:53:43;100218.53;;;1.94;64.48
63500;BME280;49654;51.142;14.924;2023-04-03T00:56:14;100230.88;;;1.87;64.47
63500;BME280;49654;51.142;14.924;2023-04-03T00:58:45;100226.19;;;1.80;64.09
63500;BME280;49654;51.142;14.924;2023-04-03T01:01:19;100233.78;;;1.67;64.49
63500;BME280;49654;51.142;14.924;2023-04-03T01:03:47;100230.97;;;1.57;65.26
63500;BME280;49654;51.142;14.924;2023-04-03T01:06:16;100227.97;;;1.50;66.06
63500;BME280;49654;51.142;14.924;2023-04-03T01:08:44;100217.13;;;1.17;66.49
63500;BME280;49654;51.142;14.924;2023-04-03T01:11:13;100235.16;;;1.30;66.09
63500;BME280;49654;51.142;14.924;2023-04-03T01:13:41;100242.06;;;1.28;66.95
63500;BME280;49654;51.142;14.924;2023-04-03T01:16:08;100245.66;;;1.25;67.38
63500;BME280;49654;51.142;14.924;2023-04-03T01:18:37;100214.09;;;1.10;66.65
63500;BME280;49654;51.142;14.924;2023-04-03T01:24:17;100244.44;;;1.16;66.76
63500;BME280;49654;51.142;14.924;2023-04-03T01:26:48;100243.03;;;1.11;67.28
63500;BME280;49654;51.142;14.924;2023-04-03T01:29:16;100234.34;;;0.99;67.57
63500;BME280;49654;51.142;14.924;2023-04-03T01:31:49;100239.78;;;1.09;66.53
63500;BME280;49654;51.142;14.924;2023-04-03T01:34:16;100250.47;;;1.15;66.89
63500;BME280;49654;51.142;14.924;2023-04-03T01:36:43;100250.13;;;1.21;66.61
63500;BME280;49654;51.142;14.924;2023-04-03T01:39:10;100255.41;;;1.18;66.37
63500;BME280;49654;51.142;14.924;2023-04-03T01:41:37;100248.97;;;1.11;66.58
63500;BME280;49654;51.142;14.924;2023-04-03T01:44:04;100254.06;;;0.97;65.94
63500;BME280;49654;51.142;14.924;2023-04-03T01:46:31;100256.28;;;1.03;66.71
63500;BME280;49654;51.142;14.924;2023-04-03T01:49:00;100261.56;;;1.00;67.31
63500;BME280;49654;51.142;14.924;2023-04-03T01:51:27;100218.75;;;0.73;66.89
63500;BME280;49654;51.142;14.924;2023-04-03T01:53:54;100260.78;;;0.84;66.08
63500;BME280;49654;51.142;14.924;2023-04-03T01:56:21;100255.31;;;0.90;67.34
63500;BME280;49654;51.142;14.924;2023-04-03T01:58:48;100255.50;;;0.87;68.03
63500;BME280;49654;51.142;14.924;2023-04-03T02:01:15;100266.00;;;0.82;68.72
63500;BME280;49654;51.142;14.924;2023-04-03T02:03:42;100257.97;;;0.72;68.77
63500;BME280;49654;51.142;14.924;2023-04-03T02:06:10;100264.69;;;0.75;69.02
63500;BME280;49654;51.142;14.924;2023-04-03T02:08:37;100269.06;;;0.73;69.13
63500;BME280;49654;51.142;14.924;2023-04-03T02:11:04;100266.50;;;0.73;69.35
63500;BME280;49654;51.142;14.924;2023-04-03T02:13:31;100261.63;;;0.68;69.07
63500;BME280;49654;51.142;14.924;2023-04-03T02:15:58;100271.22;;;0.65;69.56
63500;BME280;49654;51.142;14.924;2023-04-03T02:18:25;100271.47;;;0.60;69.66
63500;BME280;49654;51.142;14.924;2023-04-03T02:20:52;100186.09;;;0.01;70.14
63500;BME280;49654;51.142;14.924;2023-04-03T02:23:21;100259.34;;;0.48;69.87
63500;BME280;49654;51.142;14.924;2023-04-03T02:25:48;100268.41;;;0.54;69.50
63500;BME280;49654;51.142;14.924;2023-04-03T02:28:15;100257.88;;;0.44;68.64
63500;BME280;49654;51.142;14.924;2023-04-03T02:30:42;100204.28;;;0.11;69.56
63500;BME280;49654;51.142;14.924;2023-04-03T02:33:09;100264.97;;;0.39;68.91
63500;BME280;49654;51.142;14.924;2023-04-03T02:35:36;100196.22;;;0.03;68.97
63500;BME280;49654;51.142;14.924;2023-04-03T02:38:05;100261.34;;;0.43;69.13
63500;BME280;49654;51.142;14.924;2023-04-03T02:40:33;100265.28;;;0.33;69.34
63500;BME280;49654;51.142;14.924;2023-04-03T02:43:00;100227.50;;;-0.10;69.58
63500;BME280;49654;51.142;14.924;2023-04-03T02:45:27;100273.28;;;0.27;70.34
63500;BME280;49654;51.142;14.924;2023-04-03T02:47:54;100275.91;;;0.25;69.76
63500;BME280;49654;51.142;14.924;2023-04-03T02:50:21;100282.16;;;0.19;70.13
63500;BME280;49654;51.142;14.924;2023-04-03T02:52:48;100191.41;;;-0.35;70.15
63500;BME280;49654;51.142;14.924;2023-04-03T02:55:15;100281.75;;;0.11;70.00
63500;BME280;49654;51.142;14.924;2023-04-03T02:57:43;100283.31;;;0.14;70.67
63500;BME280;49654;51.142;14.924;2023-04-03T03:00:11;100283.91;;;0.19;70.59
63500;BME280;49654;51.142;14.924;2023-04-03T03:02:38;100266.91;;;0.02;70.62
63500;BME280;49654;51.142;14.924;2023-04-03T03:05:06;100296.91;;;0.14;70.78
63500;BME280;49654;51.142;14.924;2023-04-03T03:07:33;100274.47;;;0.04;70.90
63500;BME280;49654;51.142;14.924;2023-04-03T03:10:00;100286.69;;;0.14;70.84
63500;BME280;49654;51.142;14.924;2023-04-03T03:12:27;100261.28;;;-0.05;70.32
63500;BME280;49654;51.142;14.924;2023-04-03T03:14:55;100266.19;;;0.00;70.72
63500;BME280;49654;51.142;14.924;2023-04-03T03:17:22;100288.91;;;0.05;70.96
63500;BME280;49654;51.142;14.924;2023-04-03T03:19:49;100269.66;;;-0.18;70.58
63500;BME280;49654;51.142;14.924;2023-04-03T03:22:16;100282.03;;;-0.11;70.95
63500;BME280;49654;51.142;14.924;2023-04-03T03:24:43;100276.03;;;-0.10;71.05
63500;BME280;49654;51.142;14.924;2023-04-03T03:27:10;100290.22;;;-0.04;71.27
63500;BME280;49654;51.142;14.924;2023-04-03T03:29:37;100298.94;;;-0.08;71.21
63500;BME280;49654;51.142;14.924;2023-04-03T03:32:06;100228.91;;;-0.53;71.48
63500;BME280;49654;51.142;14.924;2023-04-03T03:34:33;100278.97;;;-0.17;71.88
63500;BME280;49654;51.142;14.924;2023-04-03T03:37:00;100294.13;;;-0.14;71.37
63500;BME280;49654;51.142;14.924;2023-04-03T03:39:27;100249.38;;;-0.37;71.31
63500;BME280;49654;51.142;14.924;2023-04-03T03:41:54;100294.72;;;-0.09;71.34
63500;BME280;49654;51.142;14.924;2023-04-03T03:44:21;100246.31;;;-0.61;71.11
63500;BME280;49654;51.142;14.924;2023-04-03T03:46:49;100299.50;;;-0.36;71.54
63500;BME280;49654;51.142;14.924;2023-04-03T03:49:17;100303.47;;;-0.31;72.57
63500;BME280;49654;51.142;14.924;2023-04-03T03:51:44;100242.03;;;-0.61;72.81
63500;BME280;49654;51.142;14.924;2023-04-03T03:54:11;100244.69;;;-0.62;72.39
63500;BME280;49654;51.142;14.924;2023-04-03T03:56:38;100305.63;;;-0.23;72.48
63500;BME280;49654;51.142;14.924;2023-04-03T03:59:05;100295.22;;;-0.36;72.12
63500;BME280;49654;51.142;14.924;2023-04-03T04:01:32;100298.78;;;-0.38;72.56
63500;BME280;49654;51.142;14.924;2023-04-03T04:03:59;100290.44;;;-0.42;72.90
63500;BME280;49654;51.142;14.924;2023-04-03T04:06:27;100306.47;;;-0.40;72.36
63500;BME280;49654;51.142;14.924;2023-04-03T04:08:55;100306.03;;;-0.48;72.40
63500;BME280;49654;51.142;14.924;2023-04-03T04:11:21;100288.34;;;-0.51;73.40
63500;BME280;49654;51.142;14.924;2023-04-03T04:13:48;100307.97;;;-0.36;72.93
63500;BME280;49654;51.142;14.924;2023-04-03T04:16:15;100310.88;;;-0.26;72.67
63500;BME280;49654;51.142;14.924;2023-04-03T04:18:42;100313.63;;;-0.29;72.87
63500;BME280;49654;51.142;14.924;2023-04-03T04:21:09;100299.88;;;-0.44;73.54
63500;BME280;49654;51.142;14.924;2023-04-03T04:23:37;100329.75;;;-0.29;72.30
63500;BME280;49654;51.142;14.924;2023-04-03T04:26:04;100319.84;;;-0.35;73.07
63500;BME280;49654;51.142;14.924;2023-04-03T04:28:31;100254.06;;;-0.80;72.61
63500;BME280;49654;51.142;14.924;2023-04-03T04:30:58;100319.13;;;-0.54;73.23
63500;BME280;49654;51.142;14.924;2023-04-03T04:33:25;100305.00;;;-0.61;72.96
63500;BME280;49654;51.142;14.924;2023-04-03T04:35:52;100332.69;;;-0.36;73.68
63500;BME280;49654;51.142;14.924;2023-04-03T04:38:19;100304.03;;;-0.41;73.19
63500;BME280;49654;51.142;14.924;2023-04-03T04:40:48;100311.56;;;-0.22;72.99
63500;BME280;49654;51.142;14.924;2023-04-03T04:43:17;100325.53;;;-0.12;72.53
63500;BME280;49654;51.142;14.924;2023-04-03T04:45:43;100327.91;;;-0.09;72.42
63500;BME280;49654;51.142;14.924;2023-04-03T04:48:10;100332.81;;;-0.22;71.78
63500;BME280;49654;51.142;14.924;2023-04-03T04:50:38;100333.31;;;0.02;72.61
63500;BME280;49654;51.142;14.924;2023-04-03T04:53:05;100317.69;;;-0.09;71.92
63500;BME280;49654;51.142;14.924;2023-04-03T04:55:32;100339.81;;;-0.08;71.46
63500;BME280;49654;51.142;14.924;2023-04-03T04:58:00;100344.06;;;-0.09;71.25
63500;BME280;49654;51.142;14.924;2023-04-03T05:00:27;100289.69;;;-0.44;71.69
63500;BME280;49654;51.142;14.924;2023-04-03T05:02:54;100306.78;;;-0.29;72.17
63500;BME280;49654;51.142;14.924;2023-04-03T05:05:21;100319.28;;;-0.07;72.07
63500;BME280;49654;51.142;14.924;2023-04-03T05:07:48;100324.25;;;-0.04;72.22
63500;BME280;49654;51.142;14.924;2023-04-03T05:10:15;100346.06;;;0.02;72.33
63500;BME280;49654;51.142;14.924;2023-04-03T05:12:42;100333.69;;;-0.06;72.08
63500;BME280;49654;51.142;14.924;2023-04-03T05:15:10;100353.03;;;-0.35;72.78
63500;BME280;49654;51.142;14.924;2023-04-03T05:17:37;100300.94;;;-0.48;72.51
63500;BME280;49654;51.142;14.924;2023-04-03T05:20:05;100354.94;;;-0.05;72.14
63500;BME280;49654;51.142;14.924;2023-04-03T05:22:32;100281.56;;;-0.35;72.31
63500;BME280;49654;51.142;14.924;2023-04-03T05:25:00;100303.53;;;-0.15;71.57
63500;BME280;49654;51.142;14.924;2023-04-03T05:27:27;100360.16;;;0.42;71.63
63500;BME280;49654;51.142;14.924;2023-04-03T05:29:54;100359.16;;;0.29;71.08
63500;BME280;49654;51.142;14.924;2023-04-03T05:32:23;100221.44;;;-0.40;70.82
63500;BME280;49654;51.142;14.924;2023-04-03T05:34:50;100368.50;;;0.30;70.72
63500;BME280;49654;51.142;14.924;2023-04-03T05:37:18;100267.66;;;-0.29;70.98
63500;BME280;49654;51.142;14.924;2023-04-03T05:39:45;100335.47;;;0.25;71.25
63500;BME280;49654;51.142;14.924;2023-04-03T05:42:12;100316.09;;;-0.28;71.43
63500;BME280;49654;51.142;14.924;2023-04-03T05:44:39;100370.66;;;0.20;72.51
63500;BME280;49654;51.142;14.924;2023-04-03T05:47:06;100352.38;;;-0.05;71.82
63500;BME280;49654;51.142;14.924;2023-04-03T05:49:35;100346.75;;;0.06;72.60
63500;BME280;49654;51.142;14.924;2023-04-03T05:52:06;100346.28;;;0.15;71.99
63500;BME280;49654;51.142;14.924;2023-04-03T05:54:33;100377.59;;;0.18;71.47
63500;BME280;49654;51.142;14.924;2023-04-03T05:57:00;100379.00;;;0.24;71.64
63500;BME280;49654;51.142;14.924;2023-04-03T05:59:26;100374.78;;;0.56;72.08
63500;BME280;49654;51.142;14.924;2023-04-03T06:01:53;100365.13;;;0.61;70.78
63500;BME280;49654;51.142;14.924;2023-04-03T06:04:21;100379.09;;;0.87;70.63
63500;BME280;49654;51.142;14.924;2023-04-03T06:06:51;100376.28;;;1.08;70.54
63500;BME280;49654;51.142;14.924;2023-04-03T06:09:19;100389.22;;;1.20;69.53
63500;BME280;49654;51.142;14.924;2023-04-03T06:11:46;100386.03;;;1.47;69.23
63500;BME280;49654;51.142;14.924;2023-04-03T06:14:13;100349.13;;;1.05;68.58
63500;BME280;49654;51.142;14.924;2023-04-03T06:16:40;100384.38;;;1.46;68.05
63500;BME280;49654;51.142;14.924;2023-04-03T06:19:08;100277.75;;;1.00;67.90
63500;BME280;49654;51.142;14.924;2023-04-03T06:21:35;100369.44;;;1.38;67.96
63500;BME280;49654;51.142;14.924;2023-04-03T06:24:04;100381.94;;;1.89;67.53
63500;BME280;49654;51.142;14.924;2023-04-03T06:26:31;100373.16;;;2.36;66.62
63500;BME280;49654;51.142;14.924;2023-04-03T06:28:59;100379.00;;;2.52;64.39
63500;BME280;49654;51.142;14.924;2023-04-03T06:31:26;100385.00;;;2.65;65.36
63500;BME280;49654;51.142;14.924;2023-04-03T06:33:53;100370.94;;;2.44;63.79
63500;BME280;49654;51.142;14.924;2023-04-03T06:36:20;100381.44;;;1.96;65.99
63500;BME280;49654;51.142;14.924;2023-04-03T06:38:47;100356.13;;;2.06;66.56
63500;BME280;49654;51.142;14.924;2023-04-03T06:41:16;100393.38;;;2.55;64.67
63500;BME280;49654;51.142;14.924;2023-04-03T06:43:43;100392.63;;;2.10;66.33
63500;BME280;49654;51.142;14.924;2023-04-03T06:46:14;100379.00;;;1.95;65.88
63500;BME280;49654;51.142;14.924;2023-04-03T06:48:41;100393.16;;;1.86;66.39
63500;BME280;49654;51.142;14.924;2023-04-03T06:51:15;100392.31;;;1.41;67.16
63500;BME280;49654;51.142;14.924;2023-04-03T06:53:43;100385.34;;;1.73;66.96
63500;BME280;49654;51.142;14.924;2023-04-03T06:56:11;100398.56;;;1.82;66.39
63500;BME280;49654;51.142;14.924;2023-04-03T06:58:39;100401.63;;;2.31;67.08
63500;BME280;49654;51.142;14.924;2023-04-03T07:01:07;100315.41;;;1.87;65.30
63500;BME280;49654;51.142;14.924;2023-04-03T07:03:35;100378.06;;;2.67;65.39
63500;BME280;49654;51.142;14.924;2023-04-03T07:06:02;100397.81;;;2.94;64.59
63500;BME280;49654;51.142;14.924;2023-04-03T07:08:30;100410.78;;;3.05;63.45
63500;BME280;49654;51.142;14.924;2023-04-03T07:10:57;100364.13;;;2.71;63.14
63500;BME280;49654;51.142;14.924;2023-04-03T07:13:24;100414.97;;;2.65;64.49
63500;BME280;49654;51.142;14.924;2023-04-03T07:15:53;100418.69;;;3.02;64.51
63500;BME280;49654;51.142;14.924;2023-04-03T07:18:20;100420.25;;;2.90;64.45
63500;BME280;49654;51.142;14.924;2023-04-03T07:20:47;100414.44;;;3.15;64.38
63500;BME280;49654;51.142;14.924;2023-04-03T07:23:15;100415.41;;;3.00;63.71
63500;BME280;49654;51.142;14.924;2023-04-03T07:25:43;100378.53;;;3.01;62.96
63500;BME280;49654;51.142;14.924;2023-04-03T07:28:10;100411.56;;;2.93;62.58
63500;BME280;49654;51.142;14.924;2023-04-03T07:30:42;100423.84;;;2.88;64.37
63500;BME280;49654;51.142;14.924;2023-04-03T07:33:11;100428.94;;;3.02;64.06
63500;BME280;49654;51.142;14.924;2023-04-03T07:35:39;100417.69;;;3.32;63.26
63500;BME280;49654;51.142;14.924;2023-04-03T07:38:06;100429.78;;;3.57;62.61
63500;BME280;49654;51.142;14.924;2023-04-03T07:40:33;100439.81;;;3.87;61.17
63500;BME280;49654;51.142;14.924;2023-04-03T07:43:00;100432.41;;;3.82;61.30
63500;BME280;49654;51.142;14.924;2023-04-03T07:45:28;100404.19;;;3.55;60.14
63500;BME280;49654;51.142;14.924;2023-04-03T07:47:55;100431.50;;;3.96;60.28
63500;BME280;49654;51.142;14.924;2023-04-03T07:50:23;100442.63;;;4.09;60.09
63500;BME280;49654;51.142;14.924;2023-04-03T07:52:50;100425.63;;;4.32;60.00
63500;BME280;49654;51.142;14.924;2023-04-03T07:55:18;100435.41;;;4.52;60.64
63500;BME280;49654;51.142;14.924;2023-04-03T07:57:45;100414.94;;;4.38;58.68
63500;BME280;49654;51.142;14.924;2023-04-03T08:00:14;100433.97;;;4.36;58.64
63500;BME280;49654;51.142;14.924;2023-04-03T08:02:43;100440.16;;;4.59;59.91
63500;BME280;49654;51.142;14.924;2023-04-03T08:05:10;100432.47;;;4.83;57.19
63500;BME280;49654;51.142;14.924;2023-04-03T08:07:38;100430.56;;;5.34;58.08
63500;BME280;49654;51.142;14.924;2023-04-03T08:10:06;100430.81;;;5.66;57.53
63500;BME280;49654;51.142;14.924;2023-04-03T08:12:33;100378.38;;;4.71;55.46
63500;BME280;49654;51.142;14.924;2023-04-03T08:15:00;100408.69;;;4.79;55.93
63500;BME280;49654;51.142;14.924;2023-04-03T08:17:27;100438.09;;;4.38;58.11
63500;BME280;49654;51.142;14.924;2023-04-03T08:19:54;100409.09;;;4.23;56.87
63500;BME280;49654;51.142;14.924;2023-04-03T08:22:21;100434.59;;;4.39;58.33
63500;BME280;49654;51.142;14.924;2023-04-03T08:24:49;100390.25;;;3.97;56.73
63500;BME280;49654;51.142;14.924;2023-04-03T08:27:16;100419.28;;;4.25;59.49
63500;BME280;49654;51.142;14.924;2023-04-03T08:29:43;100392.19;;;4.45;58.36
63500;BME280;49654;51.142;14.924;2023-04-03T08:32:10;100423.41;;;4.90;57.75
63500;BME280;49654;51.142;14.924;2023-04-03T08:34:37;100403.09;;;4.48;56.64
63500;BME280;49654;51.142;14.924;2023-04-03T08:37:05;100411.78;;;4.22;53.70
63500;BME280;49654;51.142;14.924;2023-04-03T08:39:32;100433.13;;;4.61;55.79
63500;BME280;49654;51.142;14.924;2023-04-03T08:42:05;100339.41;;;4.03;57.49
63500;BME280;49654;51.142;14.924;2023-04-03T08:44:39;100425.41;;;5.10;57.38
63500;BME280;49654;51.142;14.924;2023-04-03T08:47:17;100427.09;;;5.46;56.78
63500;BME280;49654;51.142;14.924;2023-04-03T08:49:48;100389.47;;;6.14;54.65
63500;BME280;49654;51.142;14.924;2023-04-03T08:52:21;100424.06;;;6.45;53.48
63500;BME280;49654;51.142;14.924;2023-04-03T08:54:51;100420.41;;;6.93;52.25
63500;BME280;49654;51.142;14.924;2023-04-03T08:57:28;100424.28;;;6.87;51.03
63500;BME280;49654;51.142;14.924;2023-04-03T08:59:57;100297.06;;;5.74;51.13
63500;BME280;49654;51.142;14.924;2023-04-03T09:02:30;100430.75;;;6.37;51.60
63500;BME280;49654;51.142;14.924;2023-04-03T09:04:58;100436.59;;;6.16;52.51
63500;BME280;49654;51.142;14.924;2023-04-03T09:07:31;100426.66;;;6.23;50.96
63500;BME280;49654;51.142;14.924;2023-04-03T09:10:00;100421.34;;;5.67;50.49
63500;BME280;49654;51.142;14.924;2023-04-03T09:12:36;100427.72;;;5.50;49.87
63500;BME280;49654;51.142;14.924;2023-04-03T09:15:11;100426.16;;;5.71;51.81
63500;BME280;49654;51.142;14.924;2023-04-03T09:17:49;100414.56;;;6.23;50.37
63500;BME280;49654;51.142;14.924;2023-04-03T09:20:25;100426.91;;;7.63;47.54
63500;BME280;49654;51.142;14.924;2023-04-03T09:22:54;100411.72;;;7.37;46.58
63500;BME280;49654;51.142;14.924;2023-04-03T09:25:23;100423.97;;;6.36;46.71
63500;BME280;49654;51.142;14.924;2023-04-03T09:27:53;100429.44;;;6.20;48.81
63500;BME280;49654;51.142;14.924;2023-04-03T09:30:22;100427.94;;;6.17;48.18
63500;BME280;49654;51.142;14.924;2023-04-03T09:32:50;100430.41;;;6.30;48.80
63500;BME280;49654;51.142;14.924;2023-04-03T09:35:23;100425.25;;;6.41;49.29
63500;BME280;49654;51.142;14.924;2023-04-03T09:37:52;100430.03;;;6.23;48.47
63500;BME280;49654;51.142;14.924;2023-04-03T09:40:41;100426.53;;;6.58;49.45
63500;BME280;49654;51.142;14.924;2023-04-03T09:43:28;100428.03;;;6.83;49.24
63500;BME280;49654;51.142;14.924;2023-04-03T09:46:16;100401.22;;;6.30;47.38
63500;BME280;49654;51.142;14.924;2023-04-03T09:48:50;100428.31;;;5.89;47.64
63500;BME280;49654;51.142;14.924;2023-04-03T09:51:17;100429.66;;;5.70;48.68
63500;BME280;49654;51.142;14.924;2023-04-03T09:53:44;100429.41;;;5.73;48.86
63500;BME280;49654;51.142;14.924;2023-04-03T09:56:20;100428.53;;;6.43;47.03
63500;BME280;49654;51.142;14.924;2023-04-03T09:58:51;100425.38;;;6.51;46.68
63500;BME280;49654;51.142;14.924;2023-04-03T10:01:25;100421.84;;;6.74;47.69
63500;BME280;49654;51.142;14.924;2023-04-03T10:04:05;100401.19;;;6.63;47.61
63500;BME280;49654;51.142;14.924;2023-04-03T10:06:34;100427.19;;;7.05;47.59
63500;BME280;49654;51.142;14.924;2023-04-03T10:09:03;100414.31;;;6.38;45.54
63500;BME280;49654;51.142;14.924;2023-04-03T10:11:31;100409.84;;;6.06;46.35
63500;BME280;49654;51.142;14.924;2023-04-03T10:14:01;100414.78;;;6.20;47.83
63500;BME280;49654;51.142;14.924;2023-04-03T10:16:35;100418.03;;;5.65;49.80
63500;BME280;49654;51.142;14.924;2023-04-03T10:19:25;100414.94;;;6.30;48.09
63500;BME280;49654;51.142;14.924;2023-04-03T10:21:59;100410.22;;;6.24;46.67
63500;BME280;49654;51.142;14.924;2023-04-03T10:24:36;100412.88;;;7.01;46.96
63500;BME280;49654;51.142;14.924;2023-04-03T10:27:10;100399.88;;;7.56;45.01
63500;BME280;49654;51.142;14.924;2023-04-03T10:29:46;100406.69;;;8.40;46.56
63500;BME280;49654;51.142;14.924;2023-04-03T10:32:29;100419.88;;;8.37;41.58
63500;BME280;49654;51.142;14.924;2023-04-03T10:35:02;100410.78;;;8.22;43.68
63500;BME280;49654;51.142;14.924;2023-04-03T10:37:41;100410.94;;;8.51;42.31
63500;BME280;49654;51.142;14.924;2023-04-03T10:40:23;100409.06;;;8.53;43.05
63500;BME280;49654;51.142;14.924;2023-04-03T10:42:55;100412.56;;;8.52;44.05
63500;BME280;49654;51.142;14.924;2023-04-03T10:45:28;100411.25;;;7.64;43.33
63500;BME280;49654;51.142;14.924;2023-04-03T10:48:04;100402.69;;;7.85;43.73
63500;BME280;49654;51.142;14.924;2023-04-03T10:50:41;100422.19;;;7.89;43.05
63500;BME280;49654;51.142;14.924;2023-04-03T10:53:17;100416.84;;;7.69;45.31
63500;BME280;49654;51.142;14.924;2023-04-03T10:55:52;100414.88;;;7.62;45.17
63500;BME280;49654;51.142;14.924;2023-04-03T10:58:27;100418.50;;;7.70;47.21
63500;BME280;49654;51.142;14.924;2023-04-03T11:01:02;100408.06;;;7.40;45.28
63500;BME280;49654;51.142;14.924;2023-04-03T11:03:34;100411.41;;;7.84;42.88
63500;BME280;49654;51.142;14.924;2023-04-03T11:06:06;100410.09;;;8.41;43.21
63500;BME280;49654;51.142;14.924;2023-04-03T11:08:38;100408.88;;;8.95;41.52
63500;BME280;49654;51.142;14.924;2023-04-03T11:11:12;100405.84;;;7.88;42.35
63500;BME280;49654;51.142;14.924;2023-04-03T11:13:43;100404.25;;;6.57;43.54
63500;BME280;49654;51.142;14.924;2023-04-03T11:16:18;100409.16;;;6.38;42.78
63500;BME280;49654;51.142;14.924;2023-04-03T11:18:49;100408.25;;;6.61;45.55
63500;BME280;49654;51.142;14.924;2023-04-03T11:21:20;100411.47;;;6.97;46.11
63500;BME280;49654;51.142;14.924;2023-04-03T11:23:48;100401.41;;;6.83;46.62
63500;BME280;49654;51.142;14.924;2023-04-03T11:26:18;100408.06;;;7.40;46.59
63500;BME280;49654;51.142;14.924;2023-04-03T11:28:52;100395.88;;;7.31;46.04
63500;BME280;49654;51.142;14.924;2023-04-03T11:31:30;100392.38;;;7.73;43.67
63500;BME280;49654;51.142;14.924;2023-04-03T11:34:08;100407.28;;;8.33;42.53
63500;BME280;49654;51.142;14.924;2023-04-03T11:36:43;100404.91;;;8.20;45.56
63500;BME280;49654;51.142;14.924;2023-04-03T11:39:19;100399.88;;;8.18;43.93
63500;BME280;49654;51.142;14.924;2023-04-03T11:41:47;100402.72;;;7.52;44.61
63500;BME280;49654;51.142;14.924;2023-04-03T11:44:34;100393.78;;;7.24;43.33
63500;BME280;49654;51.142;14.924;2023-04-03T11:47:04;100399.81;;;8.09;42.74
63500;BME280;49654;51.142;14.924;2023-04-03T11:49:56;100390.38;;;8.28;41.24
63500;BME280;49654;51.142;14.924;2023-04-03T11:55:53;100389.84;;;9.35;40.23
63500;BME280;49654;51.142;14.924;2023-04-03T11:58:23;100397.59;;;9.15;40.79
63500;BME280;49654;51.142;14.924;2023-04-03T12:00:57;100388.88;;;9.36;41.63
63500;BME280;49654;51.142;14.924;2023-04-03T12:04:05;100395.34;;;8.82;40.96
63500;BME280;49654;51.142;14.924;2023-04-03T12:07:01;100385.25;;;9.95;42.60
63500;BME280;49654;51.142;14.924;2023-04-03T12:09:34;100363.47;;;9.68;38.86
63500;BME280;49654;51.142;14.924;2023-04-03T12:12:24;100381.03;;;9.94;38.68
63500;BME280;49654;51.142;14.924;2023-04-03T12:14:54;100386.94;;;10.88;36.30
63500;BME280;49654;51.142;14.924;2023-04-03T12:17:25;100386.75;;;11.97;32.86
63500;BME280;49654;51.142;14.924;2023-04-03T12:19:54;100389.88;;;11.65;35.71
63500;BME280;49654;51.142;14.924;2023-04-03T12:22:21;100387.94;;;11.05;34.81
63500;BME280;49654;51.142;14.924;2023-04-03T12:24:50;100393.22;;;9.74;36.11
63500;BME280;49654;51.142;14.924;2023-04-03T12:27:22;100402.38;;;8.29;39.89
63500;BME280;49654;51.142;14.924;2023-04-03T12:29:55;100401.91;;;7.94;42.49
63500;BME280;49654;51.142;14.924;2023-04-03T12:32:31;100401.91;;;7.73;41.61
63500;BME280;49654;51.142;14.924;2023-04-03T12:35:10;100394.72;;;7.76;40.55
63500;BME280;49654;51.142;14.924;2023-04-03T12:37:56;100403.25;;;7.67;40.27
63500;BME280;49654;51.142;14.924;2023-04-03T12:40:31;100405.88;;;7.56;39.80
63500;BME280;49654;51.142;14.924;2023-04-03T12:43:20;100395.81;;;8.56;40.91
63500;BME280;49654;51.142;14.924;2023-04-03T12:45:59;100394.91;;;8.57;40.00
63500;BME280;49654;51.142;14.924;2023-04-03T12:48:30;100401.25;;;8.22;37.70
63500;BME280;49654;51.142;14.924;2023-04-03T12:50:58;100398.13;;;7.98;42.89
63500;BME280;49654;51.142;14.924;2023-04-03T12:53:27;100394.84;;;7.96;42.71
63500;BME280;49654;51.142;14.924;2023-04-03T12:55:56;100396.31;;;8.10;39.95
63500;BME280;49654;51.142;14.924;2023-04-03T12:58:26;100395.19;;;8.12;40.79
63500;BME280;49654;51.142;14.924;2023-04-03T13:01:02;100383.66;;;8.47;42.70
63500;BME280;49654;51.142;14.924;2023-04-03T13:03:30;100390.00;;;8.02;40.40
63500;BME280;49654;51.142;14.924;2023-04-03T13:06:00;100366.84;;;8.32;41.31
63500;BME280;49654;51.142;14.924;2023-04-03T13:08:29;100389.38;;;8.41;40.21